sensor_id;sensor_type;location;lat;lon;timestamp;temperature;humidity
85378;DHT22;75782;48.632;10.230;2024-03-02T00:00:20;8.00;76.90
85378;DHT22;75782;48.632;10.230;2024-03-02T00:02:48;8.00;77.00
85378;DHT22;75782;48.632;10.230;2024-03-02T00:05:17;8.00;77.10
85378;DHT22;75782;48.632;10.230;2024-03-02T00:07:43;7.90;77.00
85378;DHT22;75782;48.632;10.230;2024-03-02T00:10:10;8.00;77.00
85378;DHT22;75782;48.632;10.230;2024-03-02T00:12:37;7.90;76.80
85378;DHT22;75782;48.632;10.230;2024-03-02T00:15:13;7.90;76.70
85378;DHT22;75782;48.632;10.230;2024-03-02T00:17:33;7.90;76.70
85378;DHT22;75782;48.632;10.230;2024-03-02T00:20:00;7.90;76.60
85378;DHT22;75782;48.632;10.230;2024-03-02T00:22:27;7.90;76.70
85378;DHT22;75782;48.632;10.230;2024-03-02T00:24:53;7.90;76.70
85378;DHT22;75782;48.632;10.230;2024-03-02T00:27:21;7.90;76.80
85378;DHT22;75782;48.632;10.230;2024-03-02T00:29:47;7.90;76.80
85378;DHT22;75782;48.632;10.230;2024-03-02T00:32:14;7.90;76.80
85378;DHT22;75782;48.632;10.230;2024-03-02T00:34:40;7.80;76.70
85378;DHT22;75782;48.632;10.230;2024-03-02T00:37:08;7.80;76.80
85378;DHT22;75782;48.632;10.230;2024-03-02T00:39:34;7.80;76.80
85378;DHT22;75782;48.632;10.230;2024-03-02T00:42:01;7.80;76.80
85378;DHT22;75782;48.632;10.230;2024-03-02T00:44:27;7.80;76.80
85378;DHT22;75782;48.632;10.230;2024-03-02T00:46:56;7.80;76.80
85378;DHT22;75782;48.632;10.230;2024-03-02T00:49:23;7.80;76.80
85378;DHT22;75782;48.632;10.230;2024-03-02T00:51:50;7.80;76.70
85378;DHT22;75782;48.632;10.230;2024-03-02T00:54:18;7.80;76.80
85378;DHT22;75782;48.632;10.230;2024-03-02T00:56:43;7.80;76.80
85378;DHT22;75782;48.632;10.230;2024-03-02T00:59:10;7.80;76.80
85378;DHT22;75782;48.632;10.230;2024-03-02T01:01:36;7.80;76.80
85378;DHT22;75782;48.632;10.230;2024-03-02T01:04:03;7.80;76.80
85378;DHT22;75782;48.632;10.230;2024-03-02T01:06:30;7.80;76.90
85378;DHT22;75782;48.632;10.230;2024-03-02T01:08:56;7.80;76.90
85378;DHT22;75782;48.632;10.230;2024-03-02T01:11:23;7.80;77.00
85378;DHT22;75782;48.632;10.230;2024-03-02T01:13:50;7.80;77.00
85378;DHT22;75782;48.632;10.230;2024-03-02T01:16:16;7.80;76.90
85378;DHT22;75782;48.632;10.230;2024-03-02T01:18:43;7.80;76.90
85378;DHT22;75782;48.632;10.230;2024-03-02T01:21:10;7.80;76.80
85378;DHT22;75782;48.632;10.230;2024-03-02T01:23:37;7.80;76.90
85378;DHT22;75782;48.632;10.230;2024-03-02T01:26:04;7.80;76.90
85378;DHT22;75782;48.632;10.230;2024-03-02T01:28:31;7.80;76.90
85378;DHT22;75782;48.632;10.230;2024-03-02T01:30:57;7.80;76.80
85378;DHT22;75782;48.632;10.230;2024-03-02T01:33:24;7.80;76.70
85378;DHT22;75782;48.632;10.230;2024-03-02T01:35:50;7.80;76.60
85378;DHT22;75782;48.632;10.230;2024-03-02T01:38:17;7.80;76.50
85378;DHT22;75782;48.632;10.230;2024-03-02T01:40:44;7.80;76.50
85378;DHT22;75782;48.632;10.230;2024-03-02T01:43:12;7.80;76.50
85378;DHT22;75782;48.632;10.230;2024-03-02T01:45:38;7.70;76.40
85378;DHT22;75782;48.632;10.230;2024-03-02T01:48:06;7.80;76.40
85378;DHT22;75782;48.632;10.230;2024-03-02T01:50:33;7.70;76.30
85378;DHT22;75782;48.632;10.230;2024-03-02T01:52:59;7.70;76.20
85378;DHT22;75782;48.632;10.230;2024-03-02T01:55:27;7.70;76.90
85378;DHT22;75782;48.632;10.230;2024-03-02T01:57:53;7.70;76.30
85378;DHT22;75782;48.632;10.230;2024-03-02T02:00:20;7.70;76.30
85378;DHT22;75782;48.632;10.230;2024-03-02T02:02:47;7.70;76.20
85378;DHT22;75782;48.632;10.230;2024-03-02T02:05:13;7.70;76.30
85378;DHT22;75782;48.632;10.230;2024-03-02T02:07:41;7.70;76.30
85378;DHT22;75782;48.632;10.230;2024-03-02T02:10:08;7.70;76.30
85378;DHT22;75782;48.632;10.230;2024-03-02T02:12:34;7.70;76.20
85378;DHT22;75782;48.632;10.230;2024-03-02T02:15:01;7.70;76.20
85378;DHT22;75782;48.632;10.230;2024-03-02T02:17:27;7.70;76.30
85378;DHT22;75782;48.632;10.230;2024-03-02T02:19:54;7.70;76.30
85378;DHT22;75782;48.632;10.230;2024-03-02T02:22:21;7.60;76.00
85378;DHT22;75782;48.632;10.230;2024-03-02T02:24:49;7.60;76.00
85378;DHT22;75782;48.632;10.230;2024-03-02T02:27:16;7.60;76.10
85378;DHT22;75782;48.632;10.230;2024-03-02T02:29:43;7.60;76.10
85378;DHT22;75782;48.632;10.230;2024-03-02T02:32:10;7.60;76.10
85378;DHT22;75782;48.632;10.230;2024-03-02T02:34:37;7.60;76.10
85378;DHT22;75782;48.632;10.230;2024-03-02T02:37:03;7.60;76.10
85378;DHT22;75782;48.632;10.230;2024-03-02T02:39:30;7.60;76.10
85378;DHT22;75782;48.632;10.230;2024-03-02T02:41:57;7.60;76.20
85378;DHT22;75782;48.632;10.230;2024-03-02T02:44:24;7.50;76.10
85378;DHT22;75782;48.632;10.230;2024-03-02T02:46:51;7.60;76.10
85378;DHT22;75782;48.632;10.230;2024-03-02T02:49:18;7.50;76.10
85378;DHT22;75782;48.632;10.230;2024-03-02T02:51:46;7.50;76.20
85378;DHT22;75782;48.632;10.230;2024-03-02T02:54:13;7.50;76.20
85378;DHT22;75782;48.632;10.230;2024-03-02T02:56:40;7.50;76.20
85378;DHT22;75782;48.632;10.230;2024-03-02T02:59:06;7.50;76.20
85378;DHT22;75782;48.632;10.230;2024-03-02T03:01:33;7.50;76.20
85378;DHT22;75782;48.632;10.230;2024-03-02T03:04:00;7.50;76.20
85378;DHT22;75782;48.632;10.230;2024-03-02T03:06:26;7.50;76.10
85378;DHT22;75782;48.632;10.230;2024-03-02T03:08:53;7.50;76.10
85378;DHT22;75782;48.632;10.230;2024-03-02T03:11:20;7.40;76.00
85378;DHT22;75782;48.632;10.230;2024-03-02T03:13:47;7.50;76.10
85378;DHT22;75782;48.632;10.230;2024-03-02T03:16:13;7.50;76.10
85378;DHT22;75782;48.632;10.230;2024-03-02T03:18:40;7.50;76.10
85378;DHT22;75782;48.632;10.230;2024-03-02T03:21:07;7.40;76.70
85378;DHT22;75782;48.632;10.230;2024-03-02T03:23:35;7.40;76.10
85378;DHT22;75782;48.632;10.230;2024-03-02T03:26:01;7.40;76.10
85378;DHT22;75782;48.632;10.230;2024-03-02T03:28:29;7.40;76.00
85378;DHT22;75782;48.632;10.230;2024-03-02T03:30:55;7.40;76.00
85378;DHT22;75782;48.632;10.230;2024-03-02T03:33:22;7.40;76.00
85378;DHT22;75782;48.632;10.230;2024-03-02T03:35:48;7.40;76.10
85378;DHT22;75782;48.632;10.230;2024-03-02T03:38:15;7.40;76.10
85378;DHT22;75782;48.632;10.230;2024-03-02T03:40:42;7.40;76.10
85378;DHT22;75782;48.632;10.230;2024-03-02T03:43:08;7.40;76.10
85378;DHT22;75782;48.632;10.230;2024-03-02T03:45:35;7.40;76.10
85378;DHT22;75782;48.632;10.230;2024-03-02T03:48:02;7.40;75.90
85378;DHT22;75782;48.632;10.230;2024-03-02T03:50:28;7.40;76.00
85378;DHT22;75782;48.632;10.230;2024-03-02T03:52:55;7.30;76.00
85378;DHT22;75782;48.632;10.230;2024-03-02T03:55:22;7.40;76.30
85378;DHT22;75782;48.632;10.230;2024-03-02T03:57:49;7.30;76.20
85378;DHT22;75782;48.632;10.230;2024-03-02T04:00:16;7.30;76.20
85378;DHT22;75782;48.632;10.230;2024-03-02T04:02:43;7.30;76.40
85378;DHT22;75782;48.632;10.230;2024-03-02T04:05:11;7.30;76.50
85378;DHT22;75782;48.632;10.230;2024-03-02T04:07:37;7.30;76.40
85378;DHT22;75782;48.632;10.230;2024-03-02T04:10:04;7.30;76.50
85378;DHT22;75782;48.632;10.230;2024-03-02T04:12:31;7.30;76.40
85378;DHT22;75782;48.632;10.230;2024-03-02T04:14:57;7.30;76.50
85378;DHT22;75782;48.632;10.230;2024-03-02T04:17:24;7.20;76.60
85378;DHT22;75782;48.632;10.230;2024-03-02T04:19:51;7.20;76.70
85378;DHT22;75782;48.632;10.230;2024-03-02T04:22:18;7.20;76.70
85378;DHT22;75782;48.632;10.230;2024-03-02T04:24:45;7.20;76.80
85378;DHT22;75782;48.632;10.230;2024-03-02T04:27:13;7.20;76.80
85378;DHT22;75782;48.632;10.230;2024-03-02T04:29:39;7.20;76.80
85378;DHT22;75782;48.632;10.230;2024-03-02T04:32:06;7.20;76.80
85378;DHT22;75782;48.632;10.230;2024-03-02T04:34:33;7.20;76.90
85378;DHT22;75782;48.632;10.230;2024-03-02T04:36:59;7.10;77.00
85378;DHT22;75782;48.632;10.230;2024-03-02T04:39:26;7.10;77.20
85378;DHT22;75782;48.632;10.230;2024-03-02T04:41:53;7.10;77.20
85378;DHT22;75782;48.632;10.230;2024-03-02T04:44:20;7.10;77.40
85378;DHT22;75782;48.632;10.230;2024-03-02T04:46:47;7.10;77.40
85378;DHT22;75782;48.632;10.230;2024-03-02T04:49:13;7.10;77.30
85378;DHT22;75782;48.632;10.230;2024-03-02T04:51:40;7.00;77.90
85378;DHT22;75782;48.632;10.230;2024-03-02T04:54:07;7.00;77.40
85378;DHT22;75782;48.632;10.230;2024-03-02T04:56:34;7.00;77.40
85378;DHT22;75782;48.632;10.230;2024-03-02T04:59:05;7.00;77.40
85378;DHT22;75782;48.632;10.230;2024-03-02T05:01:32;7.00;77.40
85378;DHT22;75782;48.632;10.230;2024-03-02T05:03:58;7.00;77.50
85378;DHT22;75782;48.632;10.230;2024-03-02T05:06:26;7.00;77.50
85378;DHT22;75782;48.632;10.230;2024-03-02T05:08:52;7.00;77.50
85378;DHT22;75782;48.632;10.230;2024-03-02T05:11:19;7.10;77.70
85378;DHT22;75782;48.632;10.230;2024-03-02T05:13:51;7.00;77.60
85378;DHT22;75782;48.632;10.230;2024-03-02T05:16:18;7.00;77.50
85378;DHT22;75782;48.632;10.230;2024-03-02T05:18:44;7.00;77.50
85378;DHT22;75782;48.632;10.230;2024-03-02T05:21:11;7.00;77.70
85378;DHT22;75782;48.632;10.230;2024-03-02T05:23:38;7.00;77.80
85378;DHT22;75782;48.632;10.230;2024-03-02T05:26:05;6.90;77.70
85378;DHT22;75782;48.632;10.230;2024-03-02T05:28:31;7.00;77.80
85378;DHT22;75782;48.632;10.230;2024-03-02T05:30:58;6.90;77.80
85378;DHT22;75782;48.632;10.230;2024-03-02T05:33:25;6.90;78.30
85378;DHT22;75782;48.632;10.230;2024-03-02T05:35:53;6.80;77.70
85378;DHT22;75782;48.632;10.230;2024-03-02T05:38:19;6.80;77.70
85378;DHT22;75782;48.632;10.230;2024-03-02T05:40:47;6.90;78.50
85378;DHT22;75782;48.632;10.230;2024-03-02T05:43:14;6.90;77.90
85378;DHT22;75782;48.632;10.230;2024-03-02T05:45:41;6.80;77.80
85378;DHT22;75782;48.632;10.230;2024-03-02T05:48:07;6.90;77.90
85378;DHT22;75782;48.632;10.230;2024-03-02T05:50:34;6.90;77.90
85378;DHT22;75782;48.632;10.230;2024-03-02T05:53:01;6.80;77.80
85378;DHT22;75782;48.632;10.230;2024-03-02T05:55:28;6.80;77.80
85378;DHT22;75782;48.632;10.230;2024-03-02T05:57:55;6.80;77.50
85378;DHT22;75782;48.632;10.230;2024-03-02T06:00:25;6.80;77.80
85378;DHT22;75782;48.632;10.230;2024-03-02T06:02:51;6.80;77.80
85378;DHT22;75782;48.632;10.230;2024-03-02T06:05:18;6.80;77.70
85378;DHT22;75782;48.632;10.230;2024-03-02T06:07:44;6.80;77.70
85378;DHT22;75782;48.632;10.230;2024-03-02T06:10:11;6.80;77.60
85378;DHT22;75782;48.632;10.230;2024-03-02T06:12:38;6.80;77.50
85378;DHT22;75782;48.632;10.230;2024-03-02T06:15:05;6.80;77.50
85378;DHT22;75782;48.632;10.230;2024-03-02T06:17:32;6.80;77.50
85378;DHT22;75782;48.632;10.230;2024-03-02T06:19:58;6.80;77.50
85378;DHT22;75782;48.632;10.230;2024-03-02T06:22:25;6.80;77.50
85378;DHT22;75782;48.632;10.230;2024-03-02T06:24:52;6.80;77.40
85378;DHT22;75782;48.632;10.230;2024-03-02T06:27:18;6.80;77.40
85378;DHT22;75782;48.632;10.230;2024-03-02T06:29:46;6.80;77.70
85378;DHT22;75782;48.632;10.230;2024-03-02T06:32:12;6.80;77.70
85378;DHT22;75782;48.632;10.230;2024-03-02T06:34:40;6.80;77.60
85378;DHT22;75782;48.632;10.230;2024-03-02T06:37:06;6.80;77.60
85378;DHT22;75782;48.632;10.230;2024-03-02T06:39:33;6.80;78.10
85378;DHT22;75782;48.632;10.230;2024-03-02T06:42:00;6.80;77.50
85378;DHT22;75782;48.632;10.230;2024-03-02T06:44:26;6.80;77.50
85378;DHT22;75782;48.632;10.230;2024-03-02T06:46:53;6.80;77.50
85378;DHT22;75782;48.632;10.230;2024-03-02T06:49:20;6.80;77.50
85378;DHT22;75782;48.632;10.230;2024-03-02T06:51:46;6.80;77.50
85378;DHT22;75782;48.632;10.230;2024-03-02T06:54:13;6.90;77.70
85378;DHT22;75782;48.632;10.230;2024-03-02T06:56:40;6.90;77.70
85378;DHT22;75782;48.632;10.230;2024-03-02T06:59:06;6.90;77.60
85378;DHT22;75782;48.632;10.230;2024-03-02T07:01:33;7.00;77.70
85378;DHT22;75782;48.632;10.230;2024-03-02T07:04:00;7.00;77.30
85378;DHT22;75782;48.632;10.230;2024-03-02T07:06:27;7.00;77.30
85378;DHT22;75782;48.632;10.230;2024-03-02T07:08:53;7.00;77.10
85378;DHT22;75782;48.632;10.230;2024-03-02T07:11:20;7.00;76.90
85378;DHT22;75782;48.632;10.230;2024-03-02T07:13:47;7.00;76.80
85378;DHT22;75782;48.632;10.230;2024-03-02T07:16:13;7.00;76.90
85378;DHT22;75782;48.632;10.230;2024-03-02T07:18:45;7.00;76.70
85378;DHT22;75782;48.632;10.230;2024-03-02T07:21:12;7.10;76.50
85378;DHT22;75782;48.632;10.230;2024-03-02T07:23:39;7.10;76.40
85378;DHT22;75782;48.632;10.230;2024-03-02T07:26:05;7.10;76.40
85378;DHT22;75782;48.632;10.230;2024-03-02T07:28:32;7.10;76.40
85378;DHT22;75782;48.632;10.230;2024-03-02T07:30:59;7.10;76.50
85378;DHT22;75782;48.632;10.230;2024-03-02T07:33:25;7.10;76.60
85378;DHT22;75782;48.632;10.230;2024-03-02T07:35:52;7.20;76.70
85378;DHT22;75782;48.632;10.230;2024-03-02T07:38:18;7.20;76.80
85378;DHT22;75782;48.632;10.230;2024-03-02T07:40:45;7.20;76.50
85378;DHT22;75782;48.632;10.230;2024-03-02T07:43:11;7.20;76.40
85378;DHT22;75782;48.632;10.230;2024-03-02T07:45:38;7.30;77.20
85378;DHT22;75782;48.632;10.230;2024-03-02T07:48:05;7.30;76.50
85378;DHT22;75782;48.632;10.230;2024-03-02T07:50:32;7.20;76.40
85378;DHT22;75782;48.632;10.230;2024-03-02T07:52:59;7.30;76.40
85378;DHT22;75782;48.632;10.230;2024-03-02T07:55:26;7.30;76.40
85378;DHT22;75782;48.632;10.230;2024-03-02T07:57:52;7.30;76.20
85378;DHT22;75782;48.632;10.230;2024-03-02T08:00:19;7.40;76.50
85378;DHT22;75782;48.632;10.230;2024-03-02T08:02:45;7.40;76.60
85378;DHT22;75782;48.632;10.230;2024-03-02T08:05:12;7.50;76.70
85378;DHT22;75782;48.632;10.230;2024-03-02T08:07:39;7.50;76.00
85378;DHT22;75782;48.632;10.230;2024-03-02T08:10:06;7.60;76.00
85378;DHT22;75782;48.632;10.230;2024-03-02T08:12:33;7.60;75.80
85378;DHT22;75782;48.632;10.230;2024-03-02T08:15:00;7.60;75.60
85378;DHT22;75782;48.632;10.230;2024-03-02T08:17:27;7.60;75.30
85378;DHT22;75782;48.632;10.230;2024-03-02T08:19:55;8.00;74.30
85378;DHT22;75782;48.632;10.230;2024-03-02T08:22:22;8.00;74.30
85378;DHT22;75782;48.632;10.230;2024-03-02T08:24:48;8.00;74.40
85378;DHT22;75782;48.632;10.230;2024-03-02T08:27:14;8.10;74.50
85378;DHT22;75782;48.632;10.230;2024-03-02T08:29:41;8.20;74.60
85378;DHT22;75782;48.632;10.230;2024-03-02T08:32:08;8.30;74.70
85378;DHT22;75782;48.632;10.230;2024-03-02T08:34:36;8.40;73.60
85378;DHT22;75782;48.632;10.230;2024-03-02T08:37:03;8.40;73.70
85378;DHT22;75782;48.632;10.230;2024-03-02T08:39:30;8.40;73.70
85378;DHT22;75782;48.632;10.230;2024-03-02T08:41:56;8.50;73.30
85378;DHT22;75782;48.632;10.230;2024-03-02T08:44:23;8.60;73.20
85378;DHT22;75782;48.632;10.230;2024-03-02T08:46:50;8.60;72.60
85378;DHT22;75782;48.632;10.230;2024-03-02T08:49:17;8.70;72.80
85378;DHT22;75782;48.632;10.230;2024-03-02T08:51:44;8.70;72.40
85378;DHT22;75782;48.632;10.230;2024-03-02T08:54:11;8.70;72.30
85378;DHT22;75782;48.632;10.230;2024-03-02T08:56:38;8.70;72.10
85378;DHT22;75782;48.632;10.230;2024-03-02T08:59:04;8.70;72.00
85378;DHT22;75782;48.632;10.230;2024-03-02T09:01:31;8.80;72.10
85378;DHT22;75782;48.632;10.230;2024-03-02T09:03:57;8.80;71.80
85378;DHT22;75782;48.632;10.230;2024-03-02T09:06:25;8.80;72.10
85378;DHT22;75782;48.632;10.230;2024-03-02T09:08:51;8.80;71.40
85378;DHT22;75782;48.632;10.230;2024-03-02T09:11:18;8.90;71.70
85378;DHT22;75782;48.632;10.230;2024-03-02T09:13:45;9.00;72.00
85378;DHT22;75782;48.632;10.230;2024-03-02T09:16:12;9.20;71.40
85378;DHT22;75782;48.632;10.230;2024-03-02T09:18:38;9.20;71.40
85378;DHT22;75782;48.632;10.230;2024-03-02T09:21:05;9.30;71.10
85378;DHT22;75782;48.632;10.230;2024-03-02T09:23:32;9.40;70.60
85378;DHT22;75782;48.632;10.230;2024-03-02T09:25:58;9.60;70.70
85378;DHT22;75782;48.632;10.230;2024-03-02T09:28:25;10.10;70.20
85378;DHT22;75782;48.632;10.230;2024-03-02T09:30:52;10.90;66.90
85378;DHT22;75782;48.632;10.230;2024-03-02T09:33:20;10.80;65.30
85378;DHT22;75782;48.632;10.230;2024-03-02T09:35:46;10.80;65.30
85378;DHT22;75782;48.632;10.230;2024-03-02T09:38:13;10.80;65.90
85378;DHT22;75782;48.632;10.230;2024-03-02T09:40:41;10.70;65.10
85378;DHT22;75782;48.632;10.230;2024-03-02T09:43:06;10.70;65.20
85378;DHT22;75782;48.632;10.230;2024-03-02T09:45:33;10.70;65.00
85378;DHT22;75782;48.632;10.230;2024-03-02T09:48:00;10.70;65.00
85378;DHT22;75782;48.632;10.230;2024-03-02T09:50:26;10.80;66.10
85378;DHT22;75782;48.632;10.230;2024-03-02T09:52:53;11.10;65.10
85378;DHT22;75782;48.632;10.230;2024-03-02T09:55:20;11.10;63.90
85378;DHT22;75782;48.632;10.230;2024-03-02T09:57:47;11.10;63.90
85378;DHT22;75782;48.632;10.230;2024-03-02T10:00:15;11.10;63.80
85378;DHT22;75782;48.632;10.230;2024-03-02T10:02:42;11.10;64.50
85378;DHT22;75782;48.632;10.230;2024-03-02T10:05:09;11.10;63.50
85378;DHT22;75782;48.632;10.230;2024-03-02T10:07:36;11.20;63.30
85378;DHT22;75782;48.632;10.230;2024-03-02T10:10:13;11.10;63.10
85378;DHT22;75782;48.632;10.230;2024-03-02T10:12:39;11.30;63.60
85378;DHT22;75782;48.632;10.230;2024-03-02T10:15:06;11.70;63.90
85378;DHT22;75782;48.632;10.230;2024-03-02T10:17:33;12.20;63.10
85378;DHT22;75782;48.632;10.230;2024-03-02T10:19:59;13.30;61.40
85378;DHT22;75782;48.632;10.230;2024-03-02T10:22:26;15.30;57.70
85378;DHT22;75782;48.632;10.230;2024-03-02T10:24:52;17.40;53.30
85378;DHT22;75782;48.632;10.230;2024-03-02T10:27:23;19.20;49.00
85378;DHT22;75782;48.632;10.230;2024-03-02T10:29:49;20.20;46.20
85378;DHT22;75782;48.632;10.230;2024-03-02T10:32:16;20.30;44.40
85378;DHT22;75782;48.632;10.230;2024-03-02T10:34:44;20.20;43.50
85378;DHT22;75782;48.632;10.230;2024-03-02T10:37:11;20.50;43.10
85378;DHT22;75782;48.632;10.230;2024-03-02T10:39:37;21.20;42.30
85378;DHT22;75782;48.632;10.230;2024-03-02T10:42:04;21.90;40.90
85378;DHT22;75782;48.632;10.230;2024-03-02T10:44:31;22.90;39.50
85378;DHT22;75782;48.632;10.230;2024-03-02T10:47:00;23.30;38.60
85378;DHT22;75782;48.632;10.230;2024-03-02T10:49:24;23.60;37.90
85378;DHT22;75782;48.632;10.230;2024-03-02T10:51:51;23.20;36.90
85378;DHT22;75782;48.632;10.230;2024-03-02T10:54:17;22.50;37.80
85378;DHT22;75782;48.632;10.230;2024-03-02T10:56:44;22.00;37.70
85378;DHT22;75782;48.632;10.230;2024-03-02T11:01:57;21.10;39.10
85378;DHT22;75782;48.632;10.230;2024-03-02T11:04:26;20.80;39.40
85378;DHT22;75782;48.632;10.230;2024-03-02T11:06:52;20.60;40.80
85378;DHT22;75782;48.632;10.230;2024-03-02T11:09:19;20.40;40.90
85378;DHT22;75782;48.632;10.230;2024-03-02T11:11:45;20.10;40.70
85378;DHT22;75782;48.632;10.230;2024-03-02T11:14:13;19.70;41.40
85378;DHT22;75782;48.632;10.230;2024-03-02T11:16:39;19.10;43.20
85378;DHT22;75782;48.632;10.230;2024-03-02T11:19:07;18.70;44.00
85378;DHT22;75782;48.632;10.230;2024-03-02T11:21:34;18.70;44.60
85378;DHT22;75782;48.632;10.230;2024-03-02T11:26:38;18.00;46.10
85378;DHT22;75782;48.632;10.230;2024-03-02T11:29:01;17.70;46.50
85378;DHT22;75782;48.632;10.230;2024-03-02T11:31:56;17.40;47.10
85378;DHT22;75782;48.632;10.230;2024-03-02T11:33:55;17.10;46.70
85378;DHT22;75782;48.632;10.230;2024-03-02T11:36:21;16.70;46.90
85378;DHT22;75782;48.632;10.230;2024-03-02T11:38:48;16.50;48.00
85378;DHT22;75782;48.632;10.230;2024-03-02T11:41:14;16.40;48.50
85378;DHT22;75782;48.632;10.230;2024-03-02T11:43:41;16.30;49.60
85378;DHT22;75782;48.632;10.230;2024-03-02T11:46:08;16.10;49.90
85378;DHT22;75782;48.632;10.230;2024-03-02T11:48:36;16.10;49.90
85378;DHT22;75782;48.632;10.230;2024-03-02T11:51:02;16.10;49.40
85378;DHT22;75782;48.632;10.230;2024-03-02T11:53:28;16.10;49.90
85378;DHT22;75782;48.632;10.230;2024-03-02T11:55:56;16.00;50.30
85378;DHT22;75782;48.632;10.230;2024-03-02T11:58:23;16.00;51.20
85378;DHT22;75782;48.632;10.230;2024-03-02T12:00:51;16.00;51.20
85378;DHT22;75782;48.632;10.230;2024-03-02T12:03:18;16.10;50.80
85378;DHT22;75782;48.632;10.230;2024-03-02T12:05:44;16.10;50.80
85378;DHT22;75782;48.632;10.230;2024-03-02T12:08:11;16.20;50.60
85378;DHT22;75782;48.632;10.230;2024-03-02T12:10:38;16.20;51.20
85378;DHT22;75782;48.632;10.230;2024-03-02T12:13:05;16.20;50.60
85378;DHT22;75782;48.632;10.230;2024-03-02T12:15:31;16.10;50.50
85378;DHT22;75782;48.632;10.230;2024-03-02T12:17:58;16.10;51.30
85378;DHT22;75782;48.632;10.230;2024-03-02T12:20:25;16.10;51.40
85378;DHT22;75782;48.632;10.230;2024-03-02T12:22:53;16.00;51.50
85378;DHT22;75782;48.632;10.230;2024-03-02T12:25:20;16.00;51.30
85378;DHT22;75782;48.632;10.230;2024-03-02T12:27:50;16.00;51.10
85378;DHT22;75782;48.632;10.230;2024-03-02T12:30:17;16.00;51.00
85378;DHT22;75782;48.632;10.230;2024-03-02T12:32:44;15.90;51.70
85378;DHT22;75782;48.632;10.230;2024-03-02T12:35:11;15.90;51.70
85378;DHT22;75782;48.632;10.230;2024-03-02T12:37:47;15.80;52.40
85378;DHT22;75782;48.632;10.230;2024-03-02T12:40:13;15.70;52.20
85378;DHT22;75782;48.632;10.230;2024-03-02T12:42:40;15.50;52.90
85378;DHT22;75782;48.632;10.230;2024-03-02T12:45:06;15.40;53.70
85378;DHT22;75782;48.632;10.230;2024-03-02T12:47:33;15.50;54.00
85378;DHT22;75782;48.632;10.230;2024-03-02T12:50:00;15.60;53.80
85378;DHT22;75782;48.632;10.230;2024-03-02T12:52:26;15.70;53.70
85378;DHT22;75782;48.632;10.230;2024-03-02T12:54:53;15.70;53.40
85378;DHT22;75782;48.632;10.230;2024-03-02T12:57:19;15.80;54.00
85378;DHT22;75782;48.632;10.230;2024-03-02T12:59:46;15.90;54.40
85378;DHT22;75782;48.632;10.230;2024-03-02T13:02:17;15.90;53.60
85378;DHT22;75782;48.632;10.230;2024-03-02T13:04:43;15.80;53.00
85378;DHT22;75782;48.632;10.230;2024-03-02T13:07:10;15.70;53.10
85378;DHT22;75782;48.632;10.230;2024-03-02T13:09:37;15.70;52.60
85378;DHT22;75782;48.632;10.230;2024-03-02T13:12:03;15.70;52.70
85378;DHT22;75782;48.632;10.230;2024-03-02T13:14:32;15.80;53.00
85378;DHT22;75782;48.632;10.230;2024-03-02T13:16:57;15.80;51.80
85378;DHT22;75782;48.632;10.230;2024-03-02T13:19:23;15.80;50.80
85378;DHT22;75782;48.632;10.230;2024-03-02T13:21:50;15.80;51.60
85378;DHT22;75782;48.632;10.230;2024-03-02T13:24:16;15.90;51.50
85378;DHT22;75782;48.632;10.230;2024-03-02T13:26:44;15.80;51.40
85378;DHT22;75782;48.632;10.230;2024-03-02T13:29:11;15.90;51.60
85378;DHT22;75782;48.632;10.230;2024-03-02T13:31:37;15.80;51.50
85378;DHT22;75782;48.632;10.230;2024-03-02T13:34:04;15.80;51.40
85378;DHT22;75782;48.632;10.230;2024-03-02T13:36:31;15.90;51.90
85378;DHT22;75782;48.632;10.230;2024-03-02T13:38:57;15.80;51.90
85378;DHT22;75782;48.632;10.230;2024-03-02T13:41:24;15.70;52.30
85378;DHT22;75782;48.632;10.230;2024-03-02T13:43:51;15.20;53.00
85378;DHT22;75782;48.632;10.230;2024-03-02T13:46:18;15.20;52.80
85378;DHT22;75782;48.632;10.230;2024-03-02T13:48:44;15.00;53.10
85378;DHT22;75782;48.632;10.230;2024-03-02T13:51:11;14.90;53.70
85378;DHT22;75782;48.632;10.230;2024-03-02T13:53:38;14.90;54.10
85378;DHT22;75782;48.632;10.230;2024-03-02T13:56:04;14.80;54.00
85378;DHT22;75782;48.632;10.230;2024-03-02T13:58:31;14.70;53.80
85378;DHT22;75782;48.632;10.230;2024-03-02T14:00:58;14.70;54.30
85378;DHT22;75782;48.632;10.230;2024-03-02T14:03:24;14.70;54.20
85378;DHT22;75782;48.632;10.230;2024-03-02T14:05:51;14.70;54.60
85378;DHT22;75782;48.632;10.230;2024-03-02T14:08:18;14.60;55.00
85378;DHT22;75782;48.632;10.230;2024-03-02T14:10:46;14.60;55.10
85378;DHT22;75782;48.632;10.230;2024-03-02T14:13:12;14.50;55.00
85378;DHT22;75782;48.632;10.230;2024-03-02T14:15:41;14.50;54.80
85378;DHT22;75782;48.632;10.230;2024-03-02T14:18:08;14.50;55.40
85378;DHT22;75782;48.632;10.230;2024-03-02T14:20:35;14.40;55.70
85378;DHT22;75782;48.632;10.230;2024-03-02T14:23:02;14.30;55.60
85378;DHT22;75782;48.632;10.230;2024-03-02T14:25:30;14.20;55.80
85378;DHT22;75782;48.632;10.230;2024-03-02T14:27:57;14.20;55.70
85378;DHT22;75782;48.632;10.230;2024-03-02T14:30:23;14.20;55.80
85378;DHT22;75782;48.632;10.230;2024-03-02T14:32:50;14.10;55.60
85378;DHT22;75782;48.632;10.230;2024-03-02T14:35:16;14.10;56.00
85378;DHT22;75782;48.632;10.230;2024-03-02T14:37:43;14.00;56.00
85378;DHT22;75782;48.632;10.230;2024-03-02T14:40:10;13.90;55.70
85378;DHT22;75782;48.632;10.230;2024-03-02T14:42:37;13.90;56.00
85378;DHT22;75782;48.632;10.230;2024-03-02T14:45:04;13.80;56.30
85378;DHT22;75782;48.632;10.230;2024-03-02T14:47:31;13.80;56.60
85378;DHT22;75782;48.632;10.230;2024-03-02T14:49:58;13.80;56.50
85378;DHT22;75782;48.632;10.230;2024-03-02T14:52:25;13.70;56.80
85378;DHT22;75782;48.632;10.230;2024-03-02T14:54:53;13.70;56.80
85378;DHT22;75782;48.632;10.230;2024-03-02T14:57:20;13.60;57.20
85378;DHT22;75782;48.632;10.230;2024-03-02T14:59:46;13.60;57.20
85378;DHT22;75782;48.632;10.230;2024-03-02T15:02:13;13.60;57.50
85378;DHT22;75782;48.632;10.230;2024-03-02T15:04:40;13.50;57.40
85378;DHT22;75782;48.632;10.230;2024-03-02T15:07:08;13.40;57.80
85378;DHT22;75782;48.632;10.230;2024-03-02T15:09:35;13.40;57.80
85378;DHT22;75782;48.632;10.230;2024-03-02T15:12:02;13.30;58.40
85378;DHT22;75782;48.632;10.230;2024-03-02T15:14:28;13.30;57.80
85378;DHT22;75782;48.632;10.230;2024-03-02T15:16:55;13.30;58.20
85378;DHT22;75782;48.632;10.230;2024-03-02T15:19:22;13.20;58.00
85378;DHT22;75782;48.632;10.230;2024-03-02T15:21:49;13.20;58.00
85378;DHT22;75782;48.632;10.230;2024-03-02T15:24:16;13.20;58.10
85378;DHT22;75782;48.632;10.230;2024-03-02T15:26:42;13.20;58.40